sensor_id;sensor_type;location;lat;lon;timestamp;temperature;humidity
20650;DHT22;10484;48.736;9.332;2022-12-18T00:01:19;-5.30;1.00
20650;DHT22;10484;48.736;9.332;2022-12-18T00:03:45;-5.30;1.00
20650;DHT22;10484;48.736;9.332;2022-12-18T00:06:12;-5.30;1.00
20650;DHT22;10484;48.736;9.332;2022-12-18T00:08:39;-5.30;1.00
20650;DHT22;10484;48.736;9.332;2022-12-18T00:11:06;-5.40;1.00
20650;DHT22;10484;48.736;9.332;2022-12-18T00:13:32;-5.40;1.00
20650;DHT22;10484;48.736;9.332;2022-12-18T00:16:02;-5.40;1.00
20650;DHT22;10484;48.736;9.332;2022-12-18T00:18:28;-5.30;1.00
20650;DHT22;10484;48.736;9.332;2022-12-18T00:20:54;-5.30;1.00
20650;DHT22;10484;48.736;9.332;2022-12-18T00:23:23;-5.30;1.00
20650;DHT22;10484;48.736;9.332;2022-12-18T00:25:49;-5.30;1.00
20650;DHT22;10484;48.736;9.332;2022-12-18T00:28:14;-5.30;1.00
20650;DHT22;10484;48.736;9.332;2022-12-18T00:30:40;-5.30;1.00
20650;DHT22;10484;48.736;9.332;2022-12-18T00:33:06;-5.30;1.00
20650;DHT22;10484;48.736;9.332;2022-12-18T00:35:31;-5.30;1.00
20650;DHT22;10484;48.736;9.332;2022-12-18T00:37:57;-5.30;1.00
20650;DHT22;10484;48.736;9.332;2022-12-18T00:40:23;-5.40;1.00
20650;DHT22;10484;48.736;9.332;2022-12-18T00:42:48;-5.40;1.00
20650;DHT22;10484;48.736;9.332;2022-12-18T00:45:24;-5.40;1.00
20650;DHT22;10484;48.736;9.332;2022-12-18T00:47:50;-5.40;1.00
20650;DHT22;10484;48.736;9.332;2022-12-18T00:50:16;-5.40;1.00
20650;DHT22;10484;48.736;9.332;2022-12-18T00:52:42;-5.40;1.00
20650;DHT22;10484;48.736;9.332;2022-12-18T00:55:08;-5.40;1.00
20650;DHT22;10484;48.736;9.332;2022-12-18T00:57:34;-5.40;1.00
20650;DHT22;10484;48.736;9.332;2022-12-18T01:00:00;-5.40;1.00
20650;DHT22;10484;48.736;9.332;2022-12-18T01:02:26;-5.40;1.00
20650;DHT22;10484;48.736;9.332;2022-12-18T01:04:52;-5.40;1.00
20650;DHT22;10484;48.736;9.332;2022-12-18T01:07:17;-5.40;1.00
20650;DHT22;10484;48.736;9.332;2022-12-18T01:09:43;-5.40;1.00
20650;DHT22;10484;48.736;9.332;2022-12-18T01:12:09;-5.40;1.00
20650;DHT22;10484;48.736;9.332;2022-12-18T01:14:34;-5.40;1.00
20650;DHT22;10484;48.736;9.332;2022-12-18T01:17:00;-5.40;1.00
20650;DHT22;10484;48.736;9.332;2022-12-18T01:19:28;-5.50;1.00
20650;DHT22;10484;48.736;9.332;2022-12-18T01:21:53;-5.50;1.00
20650;DHT22;10484;48.736;9.332;2022-12-18T01:24:19;-5.50;1.00
20650;DHT22;10484;48.736;9.332;2022-12-18T01:26:45;-5.50;1.00
20650;DHT22;10484;48.736;9.332;2022-12-18T01:29:10;-5.50;1.00
20650;DHT22;10484;48.736;9.332;2022-12-18T01:31:36;-5.50;1.00
20650;DHT22;10484;48.736;9.332;2022-12-18T01:34:03;-5.50;1.00
20650;DHT22;10484;48.736;9.332;2022-12-18T01:36:35;-5.50;1.00
20650;DHT22;10484;48.736;9.332;2022-12-18T01:39:03;-5.50;1.00
20650;DHT22;10484;48.736;9.332;2022-12-18T01:41:30;-5.40;1.00
20650;DHT22;10484;48.736;9.332;2022-12-18T01:47:33;-5.50;1.00
20650;DHT22;10484;48.736;9.332;2022-12-18T01:50:04;-5.50;1.00
20650;DHT22;10484;48.736;9.332;2022-12-18T01:52:32;-5.50;1.00
20650;DHT22;10484;48.736;9.332;2022-12-18T01:54:59;-5.50;1.00
20650;DHT22;10484;48.736;9.332;2022-12-18T01:57:26;-5.50;1.00
20650;DHT22;10484;48.736;9.332;2022-12-18T01:59:54;-5.50;1.00
20650;DHT22;10484;48.736;9.332;2022-12-18T02:02:22;-5.50;1.00
20650;DHT22;10484;48.736;9.332;2022-12-18T02:04:47;-5.60;1.00
20650;DHT22;10484;48.736;9.332;2022-12-18T02:08:14;-5.50;1.00
20650;DHT22;10484;48.736;9.332;2022-12-18T02:10:35;-5.60;1.00
20650;DHT22;10484;48.736;9.332;2022-12-18T02:13:21;-5.60;1.00
20650;DHT22;10484;48.736;9.332;2022-12-18T02:18:33;-5.60;1.00
20650;DHT22;10484;48.736;9.332;2022-12-18T02:21:28;-5.60;1.00
20650;DHT22;10484;48.736;9.332;2022-12-18T02:26:51;-5.60;1.00
20650;DHT22;10484;48.736;9.332;2022-12-18T02:29:26;-5.60;1.00
20650;DHT22;10484;48.736;9.332;2022-12-18T02:31:56;-5.60;1.00
20650;DHT22;10484;48.736;9.332;2022-12-18T02:34:31;-5.70;1.00
20650;DHT22;10484;48.736;9.332;2022-12-18T02:36:59;-5.70;1.00
20650;DHT22;10484;48.736;9.332;2022-12-18T02:39:27;-5.70;1.00
20650;DHT22;10484;48.736;9.332;2022-12-18T02:41:54;-5.70;1.00
20650;DHT22;10484;48.736;9.332;2022-12-18T02:44:20;-5.70;1.00
20650;DHT22;10484;48.736;9.332;2022-12-18T02:46:51;-5.80;1.00
20650;DHT22;10484;48.736;9.332;2022-12-18T02:55:50;-5.80;1.00
20650;DHT22;10484;48.736;9.332;2022-12-18T03:01:22;-5.80;1.00
20650;DHT22;10484;48.736;9.332;2022-12-18T03:04:01;-5.80;1.00
20650;DHT22;10484;48.736;9.332;2022-12-18T03:06:35;-5.80;1.00
20650;DHT22;10484;48.736;9.332;2022-12-18T03:09:10;-5.90;1.00
20650;DHT22;10484;48.736;9.332;2022-12-18T03:11:41;-5.80;1.00
20650;DHT22;10484;48.736;9.332;2022-12-18T03:14:28;-5.80;1.00
20650;DHT22;10484;48.736;9.332;2022-12-18T03:16:58;-5.90;1.00
20650;DHT22;10484;48.736;9.332;2022-12-18T03:19:27;-5.90;1.00
20650;DHT22;10484;48.736;9.332;2022-12-18T03:21:56;-5.90;1.00
20650;DHT22;10484;48.736;9.332;2022-12-18T03:24:22;-5.90;1.00
20650;DHT22;10484;48.736;9.332;2022-12-18T03:26:55;-5.90;1.00
20650;DHT22;10484;48.736;9.332;2022-12-18T03:29:25;-6.00;1.00
20650;DHT22;10484;48.736;9.332;2022-12-18T03:31:55;-6.00;1.00
20650;DHT22;10484;48.736;9.332;2022-12-18T03:34:29;-6.00;1.00
20650;DHT22;10484;48.736;9.332;2022-12-18T03:36:57;-6.00;1.00
20650;DHT22;10484;48.736;9.332;2022-12-18T03:39:23;-6.00;1.00
20650;DHT22;10484;48.736;9.332;2022-12-18T03:49:56;-6.10;1.00
20650;DHT22;10484;48.736;9.332;2022-12-18T03:54:52;-6.20;1.00
20650;DHT22;10484;48.736;9.332;2022-12-18T03:57:21;-6.20;1.00
20650;DHT22;10484;48.736;9.332;2022-12-18T04:00:02;-6.20;1.00
20650;DHT22;10484;48.736;9.332;2022-12-18T04:02:28;-6.20;1.00
20650;DHT22;10484;48.736;9.332;2022-12-18T04:04:58;-6.20;1.00
20650;DHT22;10484;48.736;9.332;2022-12-18T04:07:25;-6.20;1.00
20650;DHT22;10484;48.736;9.332;2022-12-18T04:09:54;-6.20;1.00
20650;DHT22;10484;48.736;9.332;2022-12-18T04:12:21;-6.20;1.00
20650;DHT22;10484;48.736;9.332;2022-12-18T04:14:49;-6.20;1.00
20650;DHT22;10484;48.736;9.332;2022-12-18T04:17:14;-6.20;1.00
20650;DHT22;10484;48.736;9.332;2022-12-18T04:19:40;-6.20;1.00
20650;DHT22;10484;48.736;9.332;2022-12-18T04:22:05;-6.30;1.00
20650;DHT22;10484;48.736;9.332;2022-12-18T04:24:31;-6.30;1.00
20650;DHT22;10484;48.736;9.332;2022-12-18T04:26:57;-6.30;1.00
20650;DHT22;10484;48.736;9.332;2022-12-18T04:29:22;-6.30;1.00
20650;DHT22;10484;48.736;9.332;2022-12-18T04:31:48;-6.30;1.00
20650;DHT22;10484;48.736;9.332;2022-12-18T04:34:13;-6.40;1.00
20650;DHT22;10484;48.736;9.332;2022-12-18T04:36:39;-6.40;1.00
20650;DHT22;10484;48.736;9.332;2022-12-18T04:39:04;-6.50;1.00
20650;DHT22;10484;48.736;9.332;2022-12-18T04:41:30;-6.50;1.00
20650;DHT22;10484;48.736;9.332;2022-12-18T04:43:56;-6.50;1.00
20650;DHT22;10484;48.736;9.332;2022-12-18T04:46:21;-6.50;1.00
20650;DHT22;10484;48.736;9.332;2022-12-18T04:48:47;-6.60;1.00
20650;DHT22;10484;48.736;9.332;2022-12-18T04:51:13;-6.60;1.00
20650;DHT22;10484;48.736;9.332;2022-12-18T04:53:39;-6.60;1.00
20650;DHT22;10484;48.736;9.332;2022-12-18T04:56:06;-6.60;1.00
20650;DHT22;10484;48.736;9.332;2022-12-18T04:58:32;-6.60;1.00
20650;DHT22;10484;48.736;9.332;2022-12-18T05:00:57;-6.70;1.00
20650;DHT22;10484;48.736;9.332;2022-12-18T05:03:23;-6.70;1.00
20650;DHT22;10484;48.736;9.332;2022-12-18T05:05:50;-6.70;1.00
20650;DHT22;10484;48.736;9.332;2022-12-18T05:08:16;-6.70;1.00
20650;DHT22;10484;48.736;9.332;2022-12-18T05:10:42;-6.70;1.00
20650;DHT22;10484;48.736;9.332;2022-12-18T05:13:07;-6.70;1.00
20650;DHT22;10484;48.736;9.332;2022-12-18T05:15:33;-6.80;1.00
20650;DHT22;10484;48.736;9.332;2022-12-18T05:17:59;-6.80;1.00
20650;DHT22;10484;48.736;9.332;2022-12-18T05:20:26;-6.80;1.00
20650;DHT22;10484;48.736;9.332;2022-12-18T05:22:52;-6.80;1.00
20650;DHT22;10484;48.736;9.332;2022-12-18T05:25:19;-6.80;1.00
20650;DHT22;10484;48.736;9.332;2022-12-18T05:27:45;-6.90;1.00
20650;DHT22;10484;48.736;9.332;2022-12-18T05:30:11;-6.90;1.00
20650;DHT22;10484;48.736;9.332;2022-12-18T05:32:37;-6.90;1.00
20650;DHT22;10484;48.736;9.332;2022-12-18T05:35:04;-6.90;1.00
20650;DHT22;10484;48.736;9.332;2022-12-18T05:37:31;-7.00;1.00
20650;DHT22;10484;48.736;9.332;2022-12-18T05:39:56;-7.00;1.00
20650;DHT22;10484;48.736;9.332;2022-12-18T05:42:22;-7.00;1.00
20650;DHT22;10484;48.736;9.332;2022-12-18T05:44:47;-7.00;1.00
20650;DHT22;10484;48.736;9.332;2022-12-18T05:47:13;-7.00;1.00
20650;DHT22;10484;48.736;9.332;2022-12-18T05:49:39;-7.00;1.00
20650;DHT22;10484;48.736;9.332;2022-12-18T05:52:04;-7.00;1.00
20650;DHT22;10484;48.736;9.332;2022-12-18T05:54:30;-7.00;1.00
20650;DHT22;10484;48.736;9.332;2022-12-18T05:56:56;-7.00;1.00
20650;DHT22;10484;48.736;9.332;2022-12-18T05:59:22;-7.00;1.00
20650;DHT22;10484;48.736;9.332;2022-12-18T06:01:48;-7.00;1.00
20650;DHT22;10484;48.736;9.332;2022-12-18T06:04:14;-7.00;1.00
20650;DHT22;10484;48.736;9.332;2022-12-18T06:06:39;-7.00;1.00
20650;DHT22;10484;48.736;9.332;2022-12-18T06:09:05;-7.00;1.00
20650;DHT22;10484;48.736;9.332;2022-12-18T06:11:35;-7.10;1.00
20650;DHT22;10484;48.736;9.332;2022-12-18T06:14:01;-7.10;1.00
20650;DHT22;10484;48.736;9.332;2022-12-18T06:16:27;-7.10;1.00
20650;DHT22;10484;48.736;9.332;2022-12-18T06:18:56;-7.10;1.00
20650;DHT22;10484;48.736;9.332;2022-12-18T06:21:22;-7.10;1.00
20650;DHT22;10484;48.736;9.332;2022-12-18T06:23:47;-7.10;1.00
20650;DHT22;10484;48.736;9.332;2022-12-18T06:26:13;-7.10;1.00
20650;DHT22;10484;48.736;9.332;2022-12-18T06:28:39;-7.20;1.00
20650;DHT22;10484;48.736;9.332;2022-12-18T06:31:06;-7.20;1.00
20650;DHT22;10484;48.736;9.332;2022-12-18T06:33:32;-7.30;1.00
20650;DHT22;10484;48.736;9.332;2022-12-18T06:36:11;-7.30;1.00
20650;DHT22;10484;48.736;9.332;2022-12-18T06:38:41;-7.30;1.00
20650;DHT22;10484;48.736;9.332;2022-12-18T06:41:12;-7.20;1.00
20650;DHT22;10484;48.736;9.332;2022-12-18T06:43:38;-7.20;1.00
20650;DHT22;10484;48.736;9.332;2022-12-18T06:46:05;-7.20;1.00
20650;DHT22;10484;48.736;9.332;2022-12-18T06:48:31;-7.20;1.00
20650;DHT22;10484;48.736;9.332;2022-12-18T06:50:57;-7.20;1.00
20650;DHT22;10484;48.736;9.332;2022-12-18T06:53:23;-7.30;1.00
20650;DHT22;10484;48.736;9.332;2022-12-18T06:55:49;-7.30;1.00
20650;DHT22;10484;48.736;9.332;2022-12-18T06:58:15;-7.30;1.00
20650;DHT22;10484;48.736;9.332;2022-12-18T07:00:41;-7.30;1.00
20650;DHT22;10484;48.736;9.332;2022-12-18T07:03:07;-7.40;1.00
20650;DHT22;10484;48.736;9.332;2022-12-18T07:05:32;-7.40;1.00
20650;DHT22;10484;48.736;9.332;2022-12-18T07:07:58;-7.50;1.00
20650;DHT22;10484;48.736;9.332;2022-12-18T07:10:24;-7.50;1.00
20650;DHT22;10484;48.736;9.332;2022-12-18T07:12:50;-7.50;1.00
20650;DHT22;10484;48.736;9.332;2022-12-18T07:15:15;-7.60;1.00
20650;DHT22;10484;48.736;9.332;2022-12-18T07:17:41;-7.60;1.00
20650;DHT22;10484;48.736;9.332;2022-12-18T07:20:07;-7.60;1.00
20650;DHT22;10484;48.736;9.332;2022-12-18T07:22:33;-7.60;1.00
20650;DHT22;10484;48.736;9.332;2022-12-18T07:24:58;-7.70;1.00
20650;DHT22;10484;48.736;9.332;2022-12-18T07:27:24;-7.70;1.00
20650;DHT22;10484;48.736;9.332;2022-12-18T07:29:50;-7.70;1.00
20650;DHT22;10484;48.736;9.332;2022-12-18T07:32:15;-7.80;1.00
20650;DHT22;10484;48.736;9.332;2022-12-18T07:34:41;-7.80;1.00
20650;DHT22;10484;48.736;9.332;2022-12-18T07:37:07;-7.80;1.00
20650;DHT22;10484;48.736;9.332;2022-12-18T07:39:32;-7.80;1.00
20650;DHT22;10484;48.736;9.332;2022-12-18T07:41:58;-7.80;1.00
20650;DHT22;10484;48.736;9.332;2022-12-18T07:44:42;-7.80;1.00
20650;DHT22;10484;48.736;9.332;2022-12-18T07:47:07;-7.80;1.00
20650;DHT22;10484;48.736;9.332;2022-12-18T07:49:33;-7.80;1.00
20650;DHT22;10484;48.736;9.332;2022-12-18T07:51:59;-7.80;1.00
20650;DHT22;10484;48.736;9.332;2022-12-18T07:54:25;-7.80;1.00
20650;DHT22;10484;48.736;9.332;2022-12-18T07:56:51;-7.80;1.00
20650;DHT22;10484;48.736;9.332;2022-12-18T07:59:17;-7.80;1.00
20650;DHT22;10484;48.736;9.332;2022-12-18T08:01:42;-7.80;1.00
20650;DHT22;10484;48.736;9.332;2022-12-18T08:04:08;-7.80;1.00
20650;DHT22;10484;48.736;9.332;2022-12-18T08:06:33;-7.80;1.00
20650;DHT22;10484;48.736;9.332;2022-12-18T08:08:59;-7.80;1.00
20650;DHT22;10484;48.736;9.332;2022-12-18T08:11:26;-7.80;1.00
20650;DHT22;10484;48.736;9.332;2022-12-18T08:13:52;-7.80;1.00
20650;DHT22;10484;48.736;9.332;2022-12-18T08:16:19;-7.80;1.00
20650;DHT22;10484;48.736;9.332;2022-12-18T08:18:44;-7.80;1.00
20650;DHT22;10484;48.736;9.332;2022-12-18T08:21:19;-7.80;1.00
20650;DHT22;10484;48.736;9.332;2022-12-18T08:23:46;-7.80;1.00
20650;DHT22;10484;48.736;9.332;2022-12-18T08:26:12;-7.80;1.00
20650;DHT22;10484;48.736;9.332;2022-12-18T08:28:38;-7.80;1.00
20650;DHT22;10484;48.736;9.332;2022-12-18T08:31:04;-7.80;1.00
20650;DHT22;10484;48.736;9.332;2022-12-18T08:33:29;-7.70;1.00
20650;DHT22;10484;48.736;9.332;2022-12-18T08:35:55;-7.70;1.00
20650;DHT22;10484;48.736;9.332;2022-12-18T08:38:20;-7.70;1.00
20650;DHT22;10484;48.736;9.332;2022-12-18T08:40:46;-7.70;1.00
20650;DHT22;10484;48.736;9.332;2022-12-18T08:43:12;-7.70;1.00
20650;DHT22;10484;48.736;9.332;2022-12-18T08:45:56;-7.70;1.00
20650;DHT22;10484;48.736;9.332;2022-12-18T08:48:22;-7.70;1.00
20650;DHT22;10484;48.736;9.332;2022-12-18T08:50:58;-7.60;1.00
20650;DHT22;10484;48.736;9.332;2022-12-18T08:53:24;-7.60;1.00
20650;DHT22;10484;48.736;9.332;2022-12-18T08:55:50;-7.60;1.00
20650;DHT22;10484;48.736;9.332;2022-12-18T08:58:16;-7.60;1.00
20650;DHT22;10484;48.736;9.332;2022-12-18T09:00:41;-7.50;1.00
20650;DHT22;10484;48.736;9.332;2022-12-18T09:03:12;-7.50;1.00
20650;DHT22;10484;48.736;9.332;2022-12-18T09:05:38;-7.50;1.00
20650;DHT22;10484;48.736;9.332;2022-12-18T09:08:04;-7.50;1.00
20650;DHT22;10484;48.736;9.332;2022-12-18T09:10:30;-7.50;1.00
20650;DHT22;10484;48.736;9.332;2022-12-18T09:12:55;-7.50;1.00
20650;DHT22;10484;48.736;9.332;2022-12-18T09:15:21;-7.50;1.00
20650;DHT22;10484;48.736;9.332;2022-12-18T09:17:47;-7.40;1.00
20650;DHT22;10484;48.736;9.332;2022-12-18T09:20:13;-7.30;1.00
20650;DHT22;10484;48.736;9.332;2022-12-18T09:22:39;-7.20;1.00
20650;DHT22;10484;48.736;9.332;2022-12-18T09:25:04;-7.10;1.00
20650;DHT22;10484;48.736;9.332;2022-12-18T09:27:33;-7.10;1.00
20650;DHT22;10484;48.736;9.332;2022-12-18T09:29:59;-6.90;1.00
20650;DHT22;10484;48.736;9.332;2022-12-18T09:32:25;-6.80;1.00
20650;DHT22;10484;48.736;9.332;2022-12-18T09:34:59;-6.80;1.00
20650;DHT22;10484;48.736;9.332;2022-12-18T09:37:25;-6.70;1.00
20650;DHT22;10484;48.736;9.332;2022-12-18T09:39:50;-6.60;1.00
20650;DHT22;10484;48.736;9.332;2022-12-18T09:42:25;-6.60;1.00
20650;DHT22;10484;48.736;9.332;2022-12-18T09:44:53;-6.50;1.00
20650;DHT22;10484;48.736;9.332;2022-12-18T09:47:27;-6.50;1.00
20650;DHT22;10484;48.736;9.332;2022-12-18T09:49:58;-6.40;1.00
20650;DHT22;10484;48.736;9.332;2022-12-18T09:52:33;-6.30;1.00
20650;DHT22;10484;48.736;9.332;2022-12-18T10:00:41;-6.10;1.00
20650;DHT22;10484;48.736;9.332;2022-12-18T10:03:11;-6.10;1.00
20650;DHT22;10484;48.736;9.332;2022-12-18T10:08:22;-6.10;1.00
20650;DHT22;10484;48.736;9.332;2022-12-18T10:10:57;-6.10;1.00
20650;DHT22;10484;48.736;9.332;2022-12-18T10:13:41;-6.00;1.00
20650;DHT22;10484;48.736;9.332;2022-12-18T10:16:17;-6.00;1.00
20650;DHT22;10484;48.736;9.332;2022-12-18T10:19:17;-5.90;1.00
20650;DHT22;10484;48.736;9.332;2022-12-18T10:25:18;-5.90;1.00
20650;DHT22;10484;48.736;9.332;2022-12-18T10:27:45;-5.90;1.00
20650;DHT22;10484;48.736;9.332;2022-12-18T10:30:22;-5.80;1.00
20650;DHT22;10484;48.736;9.332;2022-12-18T10:32:48;-5.80;1.00
20650;DHT22;10484;48.736;9.332;2022-12-18T10:35:25;-5.80;1.00
20650;DHT22;10484;48.736;9.332;2022-12-18T10:38:06;-5.80;1.00
20650;DHT22;10484;48.736;9.332;2022-12-18T10:40:47;-5.70;1.00
20650;DHT22;10484;48.736;9.332;2022-12-18T10:43:15;-5.70;1.00
20650;DHT22;10484;48.736;9.332;2022-12-18T10:48:52;-5.70;1.00
20650;DHT22;10484;48.736;9.332;2022-12-18T10:51:33;-5.70;1.00
20650;DHT22;10484;48.736;9.332;2022-12-18T10:54:17;-5.60;1.00
20650;DHT22;10484;48.736;9.332;2022-12-18T10:56:44;-5.60;1.00
20650;DHT22;10484;48.736;9.332;2022-12-18T10:59:12;-5.60;1.00
20650;DHT22;10484;48.736;9.332;2022-12-18T11:01:49;-5.50;1.00
20650;DHT22;10484;48.736;9.332;2022-12-18T11:04:18;-5.50;1.00
20650;DHT22;10484;48.736;9.332;2022-12-18T11:09:21;-5.40;1.00
20650;DHT22;10484;48.736;9.332;2022-12-18T11:11:51;-5.30;1.00
20650;DHT22;10484;48.736;9.332;2022-12-18T11:14:26;-5.30;1.00
20650;DHT22;10484;48.736;9.332;2022-12-18T11:16:54;-5.20;1.00
20650;DHT22;10484;48.736;9.332;2022-12-18T11:19:31;-5.20;1.00
20650;DHT22;10484;48.736;9.332;2022-12-18T11:21:58;-5.10;1.00
20650;DHT22;10484;48.736;9.332;2022-12-18T11:24:33;-5.10;1.00
20650;DHT22;10484;48.736;9.332;2022-12-18T11:27:02;-5.00;1.00
20650;DHT22;10484;48.736;9.332;2022-12-18T11:29:37;-5.00;1.00
20650;DHT22;10484;48.736;9.332;2022-12-18T11:32:58;-5.00;1.00
20650;DHT22;10484;48.736;9.332;2022-12-18T11:35:19;-4.90;1.00
20650;DHT22;10484;48.736;9.332;2022-12-18T11:37:57;-4.80;1.00
20650;DHT22;10484;48.736;9.332;2022-12-18T11:40:33;-4.80;1.00
20650;DHT22;10484;48.736;9.332;2022-12-18T11:43:08;-4.70;1.00
20650;DHT22;10484;48.736;9.332;2022-12-18T11:45:49;-4.70;1.00
20650;DHT22;10484;48.736;9.332;2022-12-18T11:48:24;-4.70;1.00
20650;DHT22;10484;48.736;9.332;2022-12-18T11:50:57;-4.60;1.00
20650;DHT22;10484;48.736;9.332;2022-12-18T11:53:25;-4.60;1.00
20650;DHT22;10484;48.736;9.332;2022-12-18T12:01:23;-4.40;1.00
20650;DHT22;10484;48.736;9.332;2022-12-18T12:04:11;-4.40;1.00
20650;DHT22;10484;48.736;9.332;2022-12-18T12:09:29;-4.30;1.00
20650;DHT22;10484;48.736;9.332;2022-12-18T12:17:32;-4.10;1.00
20650;DHT22;10484;48.736;9.332;2022-12-18T12:20:40;-4.10;1.00
20650;DHT22;10484;48.736;9.332;2022-12-18T12:23:26;-4.00;1.00
20650;DHT22;10484;48.736;9.332;2022-12-18T12:25:59;-4.00;1.00
20650;DHT22;10484;48.736;9.332;2022-12-18T12:34:13;-3.80;1.00
20650;DHT22;10484;48.736;9.332;2022-12-18T12:39:35;-3.80;1.00
20650;DHT22;10484;48.736;9.332;2022-12-18T12:42:04;-3.70;1.00
20650;DHT22;10484;48.736;9.332;2022-12-18T12:44:55;-3.70;1.00
20650;DHT22;10484;48.736;9.332;2022-12-18T12:47:35;-3.70;1.00
20650;DHT22;10484;48.736;9.332;2022-12-18T12:50:06;-3.60;1.00
20650;DHT22;10484;48.736;9.332;2022-12-18T12:52:44;-3.60;1.00
20650;DHT22;10484;48.736;9.332;2022-12-18T12:55:21;-3.60;1.00
20650;DHT22;10484;48.736;9.332;2022-12-18T13:00:50;-3.50;1.00
20650;DHT22;10484;48.736;9.332;2022-12-18T13:03:43;-3.50;1.00
20650;DHT22;10484;48.736;9.332;2022-12-18T13:06:27;-3.40;1.00
20650;DHT22;10484;48.736;9.332;2022-12-18T13:08:57;-3.40;1.00
20650;DHT22;10484;48.736;9.332;2022-12-18T13:11:36;-3.40;1.00
20650;DHT22;10484;48.736;9.332;2022-12-18T13:14:30;-3.30;1.00
20650;DHT22;10484;48.736;9.332;2022-12-18T13:17:36;-3.30;1.00
20650;DHT22;10484;48.736;9.332;2022-12-18T13:20:07;-3.20;1.00
20650;DHT22;10484;48.736;9.332;2022-12-18T13:22:48;-3.20;1.00
20650;DHT22;10484;48.736;9.332;2022-12-18T13:25:36;-3.20;1.00
20650;DHT22;10484;48.736;9.332;2022-12-18T13:28:16;-3.20;1.00
20650;DHT22;10484;48.736;9.332;2022-12-18T13:30:50;-3.10;1.00
20650;DHT22;10484;48.736;9.332;2022-12-18T13:41:01;-3.00;1.00
20650;DHT22;10484;48.736;9.332;2022-12-18T13:43:45;-3.00;1.00
20650;DHT22;10484;48.736;9.332;2022-12-18T13:46:29;-3.00;1.00
20650;DHT22;10484;48.736;9.332;2022-12-18T13:51:29;-3.00;1.00
20650;DHT22;10484;48.736;9.332;2022-12-18T13:54:33;-2.90;1.00
20650;DHT22;10484;48.736;9.332;2022-12-18T13:57:01;-2.90;1.00
20650;DHT22;10484;48.736;9.332;2022-12-18T13:59:34;-2.90;1.00
20650;DHT22;10484;48.736;9.332;2022-12-18T14:02:12;-2.90;1.00
20650;DHT22;10484;48.736;9.332;2022-12-18T14:04:38;-2.90;1.00
20650;DHT22;10484;48.736;9.332;2022-12-18T14:07:28;-2.80;1.00
20650;DHT22;10484;48.736;9.332;2022-12-18T14:09:56;-2.80;1.00
20650;DHT22;10484;48.736;9.332;2022-12-18T14:12:27;-2.80;1.00
20650;DHT22;10484;48.736;9.332;2022-12-18T14:17:59;-2.80;1.00
20650;DHT22;10484;48.736;9.332;2022-12-18T14:20:26;-2.80;1.00
20650;DHT22;10484;48.736;9.332;2022-12-18T14:22:54;-2.70;1.00
20650;DHT22;10484;48.736;9.332;2022-12-18T14:25:22;-2.80;1.00
20650;DHT22;10484;48.736;9.332;2022-12-18T14:30:31;-2.70;1.00
20650;DHT22;10484;48.736;9.332;2022-12-18T14:33:14;-2.70;1.00
20650;DHT22;10484;48.736;9.332;2022-12-18T14:38:31;-2.70;1.00
20650;DHT22;10484;48.736;9.332;2022-12-18T14:41:00;-2.70;1.00
20650;DHT22;10484;48.736;9.332;2022-12-18T14:43:28;-2.70;1.00
20650;DHT22;10484;48.736;9.332;2022-12-18T14:45:55;-2.70;1.00
20650;DHT22;10484;48.736;9.332;2022-12-18T14:48:34;-2.70;1.00
20650;DHT22;10484;48.736;9.332;2022-12-18T14:51:03;-2.70;1.00
20650;DHT22;10484;48.736;9.332;2022-12-18T14:53:41;-2.70;1.00
20650;DHT22;10484;48.736;9.332;2022-12-18T14:56:21;-2.70;1.00
20650;DHT22;10484;48.736;9.332;2022-12-18T14:58:55;-2.70;1.00
20650;DHT22;10484;48.736;9.332;2022-12-18T15:03:56;-2.70;1.00
20650;DHT22;10484;48.736;9.332;2022-12-18T15:06:26;-2.70;1.00
20650;DHT22;10484;48.736;9.332;2022-12-18T15:08:53;-2.70;1.00
20650;DHT22;10484;48.736;9.332;2022-12-18T15:14:39;-2.70;1.00
20650;DHT22;10484;48.736;9.332;2022-12-18T15:17:14;-2.70;1.00
20650;DHT22;10484;48.736;9.332;2022-12-18T15:19:43;-2.70;1.00
20650;DHT22;10484;48.736;9.332;2022-12-18T15:22:19;-2.70;1.00
20650;DHT22;10484;48.736;9.332;2022-12-18T15:24:45;-2.80;1.00
20650;DHT22;10484;48.736;9.332;2022-12-18T15:27:44;-2.80;1.00
20650;DHT22;10484;48.736;9.332;2022-12-18T15:30:22;-2.80;1.00
20650;DHT22;10484;48.736;9.332;2022-12-18T15:32:48;-2.70;1.00
20650;DHT22;10484;48.736;9.332;2022-12-18T15:35:21;-2.80;1.00
20650;DHT22;10484;48.736;9.332;2022-12-18T15:37:48;-2.80;1.00
20650;DHT22;10484;48.736;9.332;2022-12-18T15:40:16;-2.80;1.00
20650;DHT22;10484;48.736;9.332;2022-12-18T15:42:43;-2.80;1.00
20650;DHT22;10484;48.736;9.332;2022-12-18T15:45:27;-2.80;1.00
20650;DHT22;10484;48.736;9.332;2022-12-18T15:47:53;-2.90;1.00
20650;DHT22;10484;48.736;9.332;2022-12-18T15:50:19;-2.90;1.00
20650;DHT22;10484;48.736;9.332;2022-12-18T15:52:47;-2.90;1.00
20650;DHT22;10484;48.736;9.332;2022-12-18T15:55:17;-2.90;1.00
20650;DHT22;10484;48.736;9.332;2022-12-18T15:58:01;-2.90;1.00
20650;DHT22;10484;48.736;9.332;2022-12-18T16:00:27;-3.00;1.00
20650;DHT22;10484;48.736;9.332;2022-12-18T16:02:53;-3.00;1.00
20650;DHT22;10484;48.736;9.332;2022-12-18T16:05:20;-3.00;1.00
20650;DHT22;10484;48.736;9.332;2022-12-18T16:07:47;-3.10;1.00
20650;DHT22;10484;48.736;9.332;2022-12-18T16:10:13;-3.10;1.00
20650;DHT22;10484;48.736;9.332;2022-12-18T16:12:39;-3.10;1.00
20650;DHT22;10484;48.736;9.332;2022-12-18T16:15:05;-3.10;1.00
20650;DHT22;10484;48.736;9.332;2022-12-18T16:17:31;-3.20;1.00
20650;DHT22;10484;48.736;9.332;2022-12-18T16:19:57;-3.20;1.00
20650;DHT22;10484;48.736;9.332;2022-12-18T16:22:29;-3.20;1.00
20650;DHT22;10484;48.736;9.332;2022-12-18T16:24:56;-3.30;1.00
20650;DHT22;10484;48.736;9.332;2022-12-18T16:27:23;-3.30;1.00
20650;DHT22;10484;48.736;9.332;2022-12-18T16:29:49;-3.30;1.00
20650;DHT22;10484;48.736;9.332;2022-12-18T16:32:20;-3.30;1.00
20650;DHT22;10484;48.736;9.332;2022-12-18T16:34:46;-3.40;1.00
20650;DHT22;10484;48.736;9.332;2022-12-18T16:37:13;-3.40;1.00
20650;DHT22;10484;48.736;9.332;2022-12-18T16:39:40;-3.40;1.00
20650;DHT22;10484;48.736;9.332;2022-12-18T16:42:26;-3.40;1.00
20650;DHT22;10484;48.736;9.332;2022-12-18T16:44:51;-3.40;1.00
20650;DHT22;10484;48.736;9.332;2022-12-18T16:47:17;-3.40;1.00
20650;DHT22;10484;48.736;9.332;2022-12-18T16:49:43;-3.40;1.00
20650;DHT22;10484;48.736;9.332;2022-12-18T16:52:15;-3.40;1.00
20650;DHT22;10484;48.736;9.332;2022-12-18T16:54:41;-3.40;1.00
20650;DHT22;10484;48.736;9.332;2022-12-18T16:57:09;-3.40;1.00
20650;DHT22;10484;48.736;9.332;2022-12-18T16:59:36;-3.50;1.00
20650;DHT22;10484;48.736;9.332;2022-12-18T17:02:02;-3.50;1.00
20650;DHT22;10484;48.736;9.332;2022-12-18T17:04:30;-3.50;1.00
20650;DHT22;10484;48.736;9.332;2022-12-18T17:06:56;-3.50;1.00
20650;DHT22;10484;48.736;9.332;2022-12-18T17:09:22;-3.50;1.00
20650;DHT22;10484;48.736;9.332;2022-12-18T17:11:49;-3.50;1.00
20650;DHT22;10484;48.736;9.332;2022-12-18T17:14:18;-3.50;1.00
20650;DHT22;10484;48.736;9.332;2022-12-18T17:16:45;-3.50;1.00
20650;DHT22;10484;48.736;9.332;2022-12-18T17:19:12;-3.50;1.00
20650;DHT22;10484;48.736;9.332;2022-12-18T17:21:37;-3.50;1.00
20650;DHT22;10484;48.736;9.332;2022-12-18T17:24:03;-3.50;1.00
20650;DHT22;10484;48.736;9.332;2022-12-18T17:26:29;-3.50;1.00
20650;DHT22;10484;48.736;9.332;2022-12-18T17:28:56;-3.50;1.00
20650;DHT22;10484;48.736;9.332;2022-12-18T17:31:24;-3.50;1.00
20650;DHT22;10484;48.736;9.332;2022-12-18T17:33:50;-3.50;1.00
20650;DHT22;10484;48.736;9.332;2022-12-18T17:36:17;-3.50;1.00
20650;DHT22;10484;48.736;9.332;2022-12-18T17:38:43;-3.50;1.00